Weather reports worldwide

Advertisment
Embrun, France (7591): temperature & dewpoint: 20.05.2019 02:00:00 - 26.05.2019 02:00:00 (CEST)Embrun, France (7591): temperature 5cm: 20.05.2019 02:00:00 - 26.05.2019 02:00:00 (CEST)Embrun, France (7591): temperature -20cm & temperature -100cm: 20.05.2019 02:00:00 - 26.05.2019 02:00:00 (CEST)Embrun, France (7591): wind speed & gusts: 20.05.2019 02:00:00 - 26.05.2019 02:00:00 (CEST)Embrun, France (7591): wind direction: 20.05.2019 02:00:00 - 26.05.2019 02:00:00 (CEST)Embrun, France (7591): visibility: 20.05.2019 02:00:00 - 26.05.2019 02:00:00 (CEST)Embrun, France (7591): sunshine duration: 20.05.2019 02:00:00 - 26.05.2019 02:00:00 (CEST)Embrun, France (7591): precipitation: 20.05.2019 02:00:00 - 26.05.2019 02:00:00 (CEST)
Date & Time tt [°C] td [°C] tt 5cm [°C] tt -20cm [°C] tt -100cm [°C] ff [km/h] ff [kn] fx [km/h] fx [kn] dd vv [km] sd [min] rr [mm]
26.05.2019 02:00:00 - - - - - - - - - - - - -
26.05.2019 01:00:00 9,0 8,5 6,8 15,8 12,4 0 0 7 4 N 20 0 0,0
26.05.2019 00:00:00 9,6 9,0 7,7 15,8 12,4 4 2 9 5 N 20 0 0,0
25.05.2019 23:00:00 10,5 9,9 8,1 15,9 12,4 4 2 7 4 NE 20 0 0,2
25.05.2019 22:00:00 11,1 10,2 9,5 15,8 12,4 3 2 10 5 N 20 0 0,0
25.05.2019 21:00:00 12,0 10,6 11,1 15,8 12,4 9 5 15 8 N 20 20 0,0
25.05.2019 20:00:00 12,1 11,2 11,5 15,7 12,3 3 1 6 3 ESE 20 0 0,6
25.05.2019 19:00:00 12,0 10,6 11,4 15,7 12,3 2 1 18 10 SSE 8 0 2,8
25.05.2019 18:00:00 13,4 10,2 11,8 15,6 12,3 5 3 28 15 SSW 20 0 0,4
25.05.2019 17:00:00 14,6 10,2 12,4 15,5 12,3 14 8 24 13 SSW 20 0 0,0
25.05.2019 16:00:00 15,3 9,4 12,2 15,4 12,3 11 6 28 15 WSW 20 0 0,8
25.05.2019 15:00:00 18,8 6,6 19,4 15,4 12,3 12 6 35 19 SW 20 17 0,0
25.05.2019 14:00:00 22,8 7,7 28,9 15,3 12,3 16 9 33 18 SW 20 60 0,0
25.05.2019 13:00:00 22,1 8,2 27,0 15,3 12,3 10 5 22 12 SSE 20 60 0,0
25.05.2019 12:00:00 19,7 8,7 23,0 15,4 12,3 10 5 18 10 SSW 20 60 0,0
25.05.2019 11:00:00 17,9 9,3 20,1 15,4 12,2 5 3 13 7 S 20 16 0,0
25.05.2019 10:00:00 16,1 8,8 16,9 15,4 12,2 5 3 16 9 ENE 20 34 0,0
25.05.2019 09:00:00 13,8 9,2 14,5 15,5 12,2 4 2 12 7 ENE 20 5 0,0
25.05.2019 08:00:00 13,1 9,7 11,1 15,5 12,2 0 0 5 3 N 20 10 0,0
25.05.2019 07:00:00 11,4 9,1 10,6 15,6 12,2 0 0 9 5 N 20 0 0,0
25.05.2019 06:00:00 11,9 8,7 10,8 15,6 12,2 3 2 9 5 SSW 20 0 0,0
25.05.2019 05:00:00 12,4 7,9 10,7 15,7 12,2 2 1 14 8 ENE 20 0 0,0
25.05.2019 04:00:00 12,9 8,0 9,8 15,7 12,2 13 7 21 11 N 20 0 0,0
25.05.2019 03:00:00 12,4 7,5 9,2 15,7 12,2 5 3 14 7 N 20 0 0,0
25.05.2019 02:00:00 13,1 8,2 10,9 15,7 12,2 2 1 8 5 NE 20 0 0,0
25.05.2019 01:00:00 13,5 7,9 11,7 15,7 12,2 3 1 9 5 NE 20 0 0,0
25.05.2019 00:00:00 14,6 7,2 12,9 15,7 12,2 5 3 13 7 W 20 0 0,0
24.05.2019 23:00:00 14,8 6,9 13,3 15,6 12,2 2 1 20 11 W 20 0 0,0
24.05.2019 22:00:00 15,8 7,8 15,0 15,6 12,2 10 5 19 11 S 20 0 0,0
24.05.2019 21:00:00 17,4 7,4 16,8 15,5 12,2 14 8 33 18 SSW 20 0 0,0
24.05.2019 20:00:00 18,0 6,8 15,2 15,4 12,2 14 8 40 22 SW 20 0 0,0
24.05.2019 19:00:00 18,6 8,0 13,7 15,3 12,2 20 11 46 25 WSW 20 4 0,0
24.05.2019 18:00:00 22,9 3,4 23,4 15,1 12,1 20 11 42 23 SW 20 60 0,0
24.05.2019 17:00:00 24,0 1,0 28,0 15,0 12,1 19 10 37 20 SSW 20 60 0,0
24.05.2019 16:00:00 24,2 2,3 29,6 14,9 12,1 20 11 35 19 SW 20 60 0,0
24.05.2019 15:00:00 23,9 3,8 28,6 14,9 12,1 18 10 36 20 SW 20 60 0,0
24.05.2019 14:00:00 23,5 4,9 26,6 14,8 12,1 18 10 38 20 SW 20 60 0,0
24.05.2019 13:00:00 21,7 7,5 25,1 14,8 12,1 22 12 36 19 SSW 20 60 0,0
24.05.2019 12:00:00 20,5 9,1 24,9 14,8 12,1 14 8 25 13 S 20 60 0,0
24.05.2019 11:00:00 18,4 8,6 20,2 14,9 12,1 8 4 15 8 SSW 20 60 0,0
24.05.2019 10:00:00 16,9 8,8 15,5 15,0 12,1 0 0 13 7 N 20 60 0,0
24.05.2019 09:00:00 14,1 8,5 13,9 15,1 12,1 9 5 19 11 SSW 20 33 0,0
24.05.2019 08:00:00 13,2 7,6 8,7 15,1 12,1 13 7 24 13 NNE 20 30 0,0
24.05.2019 07:00:00 9,7 7,1 6,7 15,2 12,1 8 5 13 7 NNE 20 11 0,0
24.05.2019 06:00:00 9,2 7,0 6,3 15,2 12,0 5 3 10 5 NNE 20 0 0,0
24.05.2019 05:00:00 9,5 7,4 6,3 15,3 12,0 4 2 7 4 N 20 0 0,0
24.05.2019 04:00:00 10,6 7,8 7,7 15,3 12,0 2 1 6 3 W 20 0 0,0
24.05.2019 03:00:00 11,3 7,6 7,7 15,3 12,0 0 0 6 4 N 20 0 0,0
24.05.2019 02:00:00 12,3 7,8 8,9 15,3 12,0 0 0 8 4 N 20 0 0,0
24.05.2019 01:00:00 13,9 8,3 10,4 15,3 12,0 5 3 8 4 N 20 0 0,0
24.05.2019 00:00:00 15,9 8,6 13,7 15,3 12,0 4 2 14 8 SSW 20 0 0,0
23.05.2019 23:00:00 16,1 9,3 13,2 15,2 12,0 4 2 10 6 SW 20 0 0,0
23.05.2019 22:00:00 16,4 9,3 14,6 15,1 12,0 5 3 20 11 S 20 0 0,0
23.05.2019 21:00:00 18,4 8,4 17,6 15,0 12,0 16 9 37 20 SSW 20 0 0,0
23.05.2019 20:00:00 20,2 7,5 19,5 14,9 12,0 18 10 40 22 SW 20 1 0,0
23.05.2019 19:00:00 22,6 6,8 23,2 14,8 12,0 18 10 36 19 SW 20 57 0,0
23.05.2019 18:00:00 23,1 5,0 23,8 14,6 11,9 21 11 36 19 SSW 20 60 0,0
23.05.2019 17:00:00 23,6 4,5 27,8 14,5 12,0 21 11 37 20 SW 20 60 0,0
23.05.2019 16:00:00 23,8 5,2 27,6 14,4 12,0 19 10 39 21 SW 20 60 0,0
23.05.2019 15:00:00 23,2 5,1 28,5 14,4 12,0 19 10 35 19 SW 20 60 0,0
23.05.2019 14:00:00 22,6 6,4 27,9 14,3 11,9 20 11 39 21 SSW 20 60 0,0
23.05.2019 13:00:00 21,8 6,5 27,2 14,3 12,0 19 10 34 19 SSW 20 60 0,0
23.05.2019 12:00:00 20,3 7,0 24,5 14,3 11,9 14 7 26 14 S 20 60 0,0
23.05.2019 11:00:00 17,8 6,3 19,3 14,4 11,9 7 4 16 9 S 20 60 0,0
23.05.2019 10:00:00 15,8 6,5 13,8 14,5 11,9 8 4 24 13 S 20 60 0,0
23.05.2019 09:00:00 14,1 5,2 9,4 14,6 11,9 11 6 20 11 NNE 20 60 0,0
23.05.2019 08:00:00 10,5 5,9 7,0 14,7 11,9 4 2 19 11 S 20 27 0,0
23.05.2019 07:00:00 9,6 3,6 4,9 14,7 11,9 14 7 26 14 NNE 20 0 0,0
23.05.2019 06:00:00 7,6 4,7 3,9 14,8 11,9 10 5 13 7 NE 20 0 0,0
23.05.2019 05:00:00 7,9 5,5 4,8 14,8 11,9 2 1 9 5 S 20 0 0,0
23.05.2019 04:00:00 8,2 5,8 4,9 14,9 11,9 6 4 10 5 NE 20 0 0,0
23.05.2019 03:00:00 9,0 5,9 5,8 14,9 11,9 0 0 6 3 N 20 0 0,0
23.05.2019 02:00:00 10,3 6,1 6,4 14,8 11,9 3 1 9 5 N 20 0 0,0
23.05.2019 01:00:00 10,8 6,2 6,6 14,9 11,9 5 3 9 5 NNE 20 0 0,0
23.05.2019 00:00:00 11,9 6,4 8,2 14,8 11,9 4 2 9 5 NNW 20 0 0,0
22.05.2019 23:00:00 13,7 6,3 10,2 14,8 11,9 2 1 11 6 NW 20 0 0,0
22.05.2019 22:00:00 15,5 6,5 13,4 14,7 11,9 5 3 28 15 S 20 0 0,0
22.05.2019 21:00:00 17,6 5,8 16,6 14,6 11,9 17 9 40 22 SW 20 22 0,0
22.05.2019 20:00:00 18,9 6,7 18,3 14,4 11,9 14 8 35 19 SW 20 0 0,0
22.05.2019 19:00:00 20,0 7,0 20,3 14,3 11,9 20 11 42 23 SW 20 30 0,0
22.05.2019 18:00:00 22,2 6,4 23,8 14,2 11,9 23 12 42 23 SSW 20 60 0,0
22.05.2019 17:00:00 22,6 6,8 23,1 14,1 11,9 21 12 44 24 SSW 20 53 0,0
22.05.2019 16:00:00 22,6 6,4 24,9 14,0 11,9 23 12 37 20 SSW 20 54 0,0
22.05.2019 15:00:00 21,7 6,4 22,5 13,9 11,9 23 13 40 22 SSW 20 25 0,0
22.05.2019 14:00:00 21,0 5,7 24,1 13,9 11,9 21 12 46 25 SSW 20 49 0,0
22.05.2019 13:00:00 21,3 6,8 27,8 13,8 11,8 18 10 33 18 SSW 20 60 0,0
22.05.2019 12:00:00 19,6 6,3 24,3 13,9 11,9 10 5 21 11 SSW 20 60 0,0
22.05.2019 11:00:00 17,7 5,9 19,5 13,9 11,9 9 5 18 10 S 20 60 0,0
22.05.2019 10:00:00 15,5 7,3 13,0 14,0 11,8 6 3 11 6 S 20 56 0,0
22.05.2019 09:00:00 12,6 6,8 10,1 14,0 11,8 0 0 10 6 N 20 16 0,0
22.05.2019 08:00:00 10,7 7,2 7,5 14,1 11,8 6 3 10 5 ENE 20 24 0,0
22.05.2019 07:00:00 8,3 6,4 6,0 14,1 11,8 3 2 5 3 NNE 20 21 0,0
22.05.2019 06:00:00 7,7 6,2 5,8 14,2 11,8 0 0 8 5 N 20 0 0,0
22.05.2019 05:00:00 8,9 6,2 6,3 14,2 11,8 3 2 7 4 NNE 20 0 0,0
22.05.2019 04:00:00 8,7 6,5 5,6 14,2 11,8 4 2 6 4 N 20 0 0,0
22.05.2019 03:00:00 9,5 6,8 5,8 14,2 11,8 2 1 8 5 SSW 20 0 0,0
22.05.2019 02:00:00 9,9 7,0 6,3 14,2 11,8 5 3 8 4 NNE 20 0 0,0
22.05.2019 01:00:00 11,0 7,1 7,9 14,2 11,8 2 1 5 3 N 20 0 0,0
22.05.2019 00:00:00 11,7 7,0 8,6 14,1 11,8 0 0 10 5 N 20 0 0,0
21.05.2019 23:00:00 12,7 6,9 9,5 14,1 11,8 4 2 7 4 N 20 0 0,0
21.05.2019 22:00:00 14,5 6,8 12,5 14,0 11,8 3 2 11 6 SW 20 0 0,0
21.05.2019 21:00:00 15,4 6,4 14,2 13,9 11,8 6 3 28 15 S 20 0 0,0
21.05.2019 20:00:00 16,7 5,6 16,3 13,8 11,8 13 7 27 15 SW 20 0 0,0
21.05.2019 19:00:00 17,7 6,2 17,7 13,6 11,8 13 7 29 15 SW 20 0 0,0
21.05.2019 18:00:00 19,2 6,0 20,2 13,5 11,8 14 8 32 17 SW 20 28 0,0
21.05.2019 17:00:00 20,2 6,2 21,3 13,4 11,8 15 8 38 21 SW 20 11 0,0
21.05.2019 16:00:00 20,6 6,5 23,9 13,4 11,8 22 12 40 21 SSW 20 60 0,0
21.05.2019 15:00:00 20,1 6,1 25,2 13,3 11,8 20 11 39 21 SSW 20 57 0,0
21.05.2019 14:00:00 19,7 5,7 26,7 13,3 11,8 21 11 36 19 SSW 20 60 0,0
21.05.2019 13:00:00 18,9 6,4 26,1 13,3 11,8 16 9 31 17 SSW 20 60 0,0
21.05.2019 12:00:00 18,0 6,2 21,9 13,4 11,8 14 8 25 13 SSW 20 60 0,0
21.05.2019 11:00:00 15,9 6,9 16,9 13,4 11,8 9 5 17 9 S 20 60 0,0
21.05.2019 10:00:00 13,0 6,3 9,5 13,5 11,8 8 4 13 7 SSW 20 60 0,0
21.05.2019 09:00:00 10,9 6,8 6,2 13,6 11,8 5 3 9 5 SSE 20 60 0,0
21.05.2019 08:00:00 7,2 5,5 1,5 13,6 11,8 6 3 10 5 ENE 20 24 0,0
21.05.2019 07:00:00 4,5 3,9 -0,5 13,7 11,8 3 2 9 5 ESE 20 0 0,0
21.05.2019 06:00:00 5,0 4,4 -0,6 13,7 11,8 3 2 7 4 N 20 0 0,2
21.05.2019 05:00:00 5,0 4,4 -0,1 13,8 11,8 0 0 6 4 N 20 0 0,0
21.05.2019 04:00:00 5,6 4,9 0,7 13,8 11,8 4 2 8 4 N 20 0 0,0
21.05.2019 03:00:00 6,1 5,4 1,2 13,9 11,8 2 1 6 4 NE 20 0 0,0
21.05.2019 02:00:00 6,5 5,8 1,3 13,9 11,8 4 2 6 4 NNW 20 0 0,0
21.05.2019 01:00:00 7,2 6,1 3,0 13,9 11,8 3 2 8 5 N 20 0 0,0
21.05.2019 00:00:00 8,3 6,6 3,4 13,8 11,8 4 2 8 4 N 20 0 0,0
20.05.2019 23:00:00 9,3 7,4 4,9 13,8 11,8 0 0 7 4 N 20 0 0,0
20.05.2019 22:00:00 10,6 8,0 5,8 13,7 11,7 3 1 5 3 WSW 20 0 0,0
20.05.2019 21:00:00 11,7 7,8 9,2 13,7 11,8 0 0 15 8 N 20 12 0,0
20.05.2019 20:00:00 12,8 8,9 12,5 13,6 11,8 8 5 21 11 SSW 20 0 0,0
20.05.2019 19:00:00 14,4 9,4 15,5 13,6 11,8 6 4 13 7 S 20 1 0,0
20.05.2019 18:00:00 15,0 9,6 14,0 13,5 11,8 4 2 12 7 SSW 20 17 0,0
20.05.2019 17:00:00 13,8 9,2 12,5 13,4 11,8 8 4 13 7 SSW 20 0 0,2
20.05.2019 16:00:00 13,8 9,0 11,9 13,4 11,8 4 2 23 13 W 20 0 0,2
20.05.2019 15:00:00 15,5 8,7 15,7 13,3 11,8 10 5 31 17 SW 20 0 0,2
20.05.2019 14:00:00 16,2 6,9 19,1 13,3 11,8 16 9 31 17 SW 20 4 0,0
20.05.2019 13:00:00 16,0 8,0 19,4 13,3 11,8 16 9 31 17 SSW 20 43 0,0
20.05.2019 12:00:00 14,3 7,1 18,0 13,3 11,8 12 6 19 10 SSW 20 15 0,0
20.05.2019 11:00:00 13,8 8,0 16,7 13,3 11,7 8 5 16 9 S 20 48 0,0
20.05.2019 10:00:00 12,2 8,3 12,3 13,4 11,8 4 2 10 6 S 20 54 0,0
20.05.2019 09:00:00 10,3 8,6 10,1 13,4 11,8 3 2 10 6 ESE 20 12 0,0
20.05.2019 08:00:00 8,2 7,9 8,3 13,4 11,7 0 0 9 5 N 20 0 0,0
20.05.2019 07:00:00 7,9 7,8 7,7 13,5 11,8 0 0 4 2 N 20 0 0,0
20.05.2019 06:00:00 7,9 7,8 7,5 13,5 11,7 0 0 3 2 N 14 0 0,0
20.05.2019 05:00:00 7,7 7,4 6,6 13,5 11,7 0 0 4 2 N 0,2 0 0,2
20.05.2019 04:00:00 8,0 7,6 7,1 13,5 11,7 0 0 3 1 N 19 0 0,2
20.05.2019 03:00:00 8,2 7,4 7,8 13,6 11,7 0 0 6 4 N 12 0 1,0
20.05.2019 02:00:00 8,6 7,7 8,0 13,6 11,7 2 1 6 3 SW 17 0 0,4

tt = temperature
td = dewpoint
tt 5cm = temperature 5cm
tt -20cm = temperature -20cm
tt -100cm = temperature -100cm
ff = wind speed
fx = gusts
dd = wind direction
vv = visibility
sd = sunshine duration
rr = precipitation

Next stations